Time;durP1;ratioP1;P1;durP2;ratioP2;P2;SDS_P1;SDS_P2;PMS_P1;PMS_P2;Temp;Humidity;BMP_temperature;BMP_pressure;BME280_temperature;BME280_humidity;BME280_pressure;Samples;Min_cycle;Max_cycle;Signal;HPM_P1;HPM_P2
2022/06/03 06:31:58;;;;;;;3.33;1.08;;;13.30;69.70;;;;;;1384886;26;20144;-69
2022/06/03 06:34:58;;;;;;;5.53;1.08;;;13.30;69.90;;;;;;5016631;28;20104;-68
2022/06/03 06:37:43;;;;;;;2.90;1.00;;;13.30;69.90;;;;;;4989621;28;20058;-70
2022/06/03 06:40:23;;;;;;;3.65;1.23;;;13.30;69.80;;;;;;5009103;28;20039;-70
2022/06/03 06:43:09;;;;;;;2.38;1.00;;;13.30;70.00;;;;;;4995235;28;20038;-70
2022/06/03 06:45:39;;;;;;;2.05;1.02;;;13.30;72.40;;;;;;4993988;28;20173;-70
2022/06/03 06:48:15;;;;;;;2.75;1.30;;;13.20;73.90;;;;;;4993810;28;20026;-71
2022/06/03 06:51:12;;;;;;;1.85;1.08;;;13.20;76.60;;;;;;4993230;28;20097;-71
2022/06/03 06:53:52;;;;;;;2.20;1.15;;;13.00;77.40;;;;;;4966828;28;20034;-72
2022/06/03 06:56:34;;;;;;;3.30;1.40;;;12.90;78.60;;;;;;4975758;28;20049;-71
2022/06/03 06:59:11;;;;;;;1.77;1.20;;;12.70;80.20;;;;;;4993213;28;20165;-71
2022/06/03 07:02:03;;;;;;;2.53;1.33;;;12.70;81.70;;;;;;4993140;28;20038;-71
2022/06/03 07:04:34;;;;;;;2.92;1.00;;;12.60;82.60;;;;;;4991482;28;20038;-71
2022/06/03 07:07:01;;;;;;;2.20;0.98;;;12.50;82.90;;;;;;4966345;28;20130;-71
2022/06/03 07:09:34;;;;;;;3.13;1.13;;;12.50;83.20;;;;;;4994209;28;20121;-71
2022/06/03 07:12:12;;;;;;;4.07;1.00;;;12.40;83.60;;;;;;4996179;28;20041;-71
2022/06/03 07:15:01;;;;;;;1.98;1.20;;;12.40;83.30;;;;;;4976049;28;20038;-71
2022/06/03 07:21:04;;;;;;;3.03;1.00;;;12.40;83.40;;;;;;5003174;28;20088;-69
2022/06/03 07:23:44;;;;;;;2.47;1.05;;;12.40;83.80;;;;;;4983674;28;20043;-72
2022/06/03 07:26:21;;;;;;;4.63;1.10;;;12.40;83.70;;;;;;4973431;28;20466;-71
2022/06/03 07:28:56;;;;;;;2.00;1.10;;;12.30;84.10;;;;;;4990809;28;20034;-70
2022/06/03 07:31:56;;;;;;;1.73;1.00;;;12.30;83.90;;;;;;4979905;28;20066;-70
2022/06/03 07:34:31;;;;;;;1.88;1.17;;;12.30;83.40;;;;;;4976745;28;20100;-70
2022/06/03 07:37:07;;;;;;;2.10;1.15;;;12.30;83.80;;;;;;5004764;28;20042;-71
2022/06/03 07:39:51;;;;;;;1.75;1.10;;;12.30;83.50;;;;;;4982170;28;20056;-70
2022/06/03 07:42:42;;;;;;;3.92;1.60;;;12.30;83.20;;;;;;4990741;28;20357;-71
2022/06/03 07:45:31;;;;;;;2.42;1.55;;;12.40;83.00;;;;;;4980382;28;20038;-70
2022/06/03 07:48:01;;;;;;;2.85;1.40;;;12.40;82.10;;;;;;4990198;28;20481;-68
2022/06/03 07:50:29;;;;;;;2.63;1.40;;;12.40;82.40;;;;;;4989374;28;20049;-68
2022/06/03 07:53:00;;;;;;;4.85;1.30;;;12.40;81.80;;;;;;4988906;28;20038;-68
2022/06/03 07:55:29;;;;;;;3.00;1.50;;;12.40;82.10;;;;;;4972534;28;20122;-68
2022/06/03 07:58:04;;;;;;;2.42;1.40;;;12.40;82.20;;;;;;4989377;28;20069;-69
2022/06/03 08:00:34;;;;;;;2.10;1.05;;;12.30;80.50;;;;;;4989919;28;20038;-68
2022/06/03 08:03:08;;;;;;;1.15;1.05;;;12.30;80.50;;;;;;4956257;28;20154;-69
2022/06/03 08:05:35;;;;;;;2.40;1.20;;;12.30;79.90;;;;;;4980584;28;20546;-69
2022/06/03 08:11:00;;;;;;;2.70;1.52;;;12.30;79.40;;;;;;4955912;28;20045;-68
2022/06/03 08:13:39;;;;;;;1.80;1.20;;;12.30;79.30;;;;;;4963412;28;20481;-70
2022/06/03 08:16:23;;;;;;;2.50;1.15;;;12.30;78.90;;;;;;4989912;28;20551;-67
2022/06/03 08:18:50;;;;;;;2.08;1.25;;;12.30;78.10;;;;;;4990015;28;20034;-67
2022/06/03 08:21:39;;;;;;;2.47;1.63;;;12.30;77.50;;;;;;4974612;28;20034;-67
2022/06/03 08:24:08;;;;;;;2.35;1.60;;;12.30;77.40;;;;;;4975836;28;20034;-67
2022/06/03 08:26:35;;;;;;;2.28;1.75;;;12.30;77.80;;;;;;4956934;28;20485;-68
2022/06/03 08:29:25;;;;;;;3.72;1.58;;;12.30;77.80;;;;;;4940384;28;20066;-68
2022/06/03 08:31:53;;;;;;;3.78;1.60;;;12.30;76.90;;;;;;4979748;28;20050;-67
2022/06/03 08:34:24;;;;;;;1.50;1.30;;;12.30;76.20;;;;;;4999322;28;20065;-68
2022/06/03 08:36:51;;;;;;;2.22;1.63;;;12.30;76.00;;;;;;5004762;28;20073;-68
2022/06/03 08:39:23;;;;;;;1.77;1.20;;;12.30;75.80;;;;;;4951638;28;20437;-70
2022/06/03 08:42:05;;;;;;;2.08;1.35;;;12.30;76.20;;;;;;4987860;28;20027;-70
2022/06/03 08:45:10;;;;;;;1.80;1.02;;;12.40;75.70;;;;;;4993763;28;20042;-69
2022/06/03 08:47:43;;;;;;;2.08;1.15;;;12.30;74.70;;;;;;4980783;28;20035;-68
2022/06/03 08:50:22;;;;;;;3.13;1.17;;;12.30;74.80;;;;;;4976784;28;20050;-68
2022/06/03 08:52:52;;;;;;;2.55;1.20;;;12.30;75.40;;;;;;5002665;28;20898;-69
2022/06/03 08:55:29;;;;;;;3.92;1.20;;;12.30;75.00;;;;;;4993611;28;20034;-66
2022/06/03 08:58:00;;;;;;;2.45;1.35;;;12.30;74.20;;;;;;4972801;28;20054;-68
2022/06/03 09:00:29;;;;;;;;;;;12.40;74.30;;;;;;4990085;28;20435;-67
2022/06/03 09:03:02;;;;;;;2.53;1.40;;;12.40;74.20;;;;;;4991442;28;20324;-67
2022/06/03 09:05:39;;;;;;;2.05;1.23;;;12.40;74.50;;;;;;5000767;28;20153;-67
2022/06/03 09:08:12;;;;;;;2.30;1.40;;;12.30;74.10;;;;;;4986428;28;20063;-68
2022/06/03 09:10:56;;;;;;;3.00;1.20;;;12.30;74.10;;;;;;5008860;28;20049;-68
2022/06/03 09:13:28;;;;;;;2.00;1.38;;;12.30;73.30;;;;;;5001880;28;20373;-68
2022/06/03 09:15:55;;;;;;;2.80;1.40;;;12.30;73.60;;;;;;5001339;28;20034;-69
2022/06/03 09:18:24;;;;;;;1.55;1.23;;;12.40;73.10;;;;;;4991006;28;20064;-67
2022/06/03 09:20:59;;;;;;;3.67;1.50;;;12.30;73.60;;;;;;5024161;28;20088;-67
2022/06/03 09:23:26;;;;;;;1.92;1.50;;;12.30;73.50;;;;;;5004952;28;20033;-69
2022/06/03 09:25:57;;;;;;;2.83;1.35;;;12.30;73.70;;;;;;4989904;28;20129;-67
2022/06/03 09:28:34;;;;;;;2.95;1.38;;;12.30;73.30;;;;;;4963966;28;20058;-67
2022/06/03 09:31:06;;;;;;;3.15;1.20;;;12.20;74.90;;;;;;4991114;28;20049;-67
2022/06/03 09:33:33;;;;;;;1.48;1.13;;;12.20;75.70;;;;;;4974939;28;20065;-68
2022/06/03 09:36:03;;;;;;;2.55;1.40;;;12.20;75.30;;;;;;4998685;28;20096;-66
2022/06/03 09:38:42;;;;;;;2.85;1.30;;;12.20;74.40;;;;;;5007544;28;20096;-67
2022/06/03 09:41:09;;;;;;;2.00;1.02;;;12.20;75.30;;;;;;5007032;28;20057;-67
2022/06/03 09:43:38;;;;;;;3.05;1.38;;;12.20;75.10;;;;;;4975173;28;20073;-66
2022/06/03 09:46:05;;;;;;;1.90;1.10;;;12.20;75.40;;;;;;4999988;28;20421;-68
2022/06/03 09:48:36;;;;;;;2.58;1.50;;;12.10;76.40;;;;;;5007209;28;20038;-67
2022/06/03 09:51:10;;;;;;;2.65;1.67;;;12.10;76.30;;;;;;4991487;28;20052;-68
2022/06/03 09:53:42;;;;;;;1.45;1.33;;;12.10;77.60;;;;;;4991004;28;20038;-68
2022/06/03 09:56:19;;;;;;;2.75;1.58;;;12.00;77.90;;;;;;4987760;28;20042;-67
2022/06/03 09:58:46;;;;;;;3.15;1.38;;;12.00;79.10;;;;;;4990509;28;20037;-67
2022/06/03 10:01:13;;;;;;;2.88;1.65;;;11.90;79.60;;;;;;4992478;28;20037;-67
2022/06/03 10:03:40;;;;;;;3.40;1.20;;;11.90;79.30;;;;;;4973743;28;20038;-68
2022/06/03 10:06:43;;;;;;;3.42;1.60;;;11.90;80.00;;;;;;5007015;28;20061;-67
2022/06/03 10:14:25;;;;;;;1.40;1.30;;;11.90;79.00;;;;;;5004821;28;20057;-72
2022/06/03 10:16:52;;;;;;;2.55;1.50;;;11.90;79.90;;;;;;4965849;28;20038;-69
2022/06/03 10:19:21;;;;;;;3.35;1.50;;;11.90;79.80;;;;;;5000623;28;20172;-69
2022/06/03 10:21:53;;;;;;;2.20;1.20;;;12.00;79.20;;;;;;5001339;28;20041;-69
2022/06/03 10:24:23;;;;;;;1.88;1.10;;;12.00;79.00;;;;;;4989256;28;20134;-70
2022/06/03 10:26:51;;;;;;;2.03;1.17;;;12.00;78.70;;;;;;4974924;28;20042;-70
2022/06/03 10:29:25;;;;;;;1.95;1.23;;;12.00;79.00;;;;;;5001702;28;20048;-70
2022/06/03 10:32:00;;;;;;;2.17;1.30;;;12.00;78.50;;;;;;4990725;28;20361;-70
2022/06/03 10:34:32;;;;;;;2.15;1.20;;;12.00;78.90;;;;;;4993016;28;20038;-68
2022/06/03 10:36:59;;;;;;;1.73;1.00;;;12.00;78.80;;;;;;4970335;28;20066;-68
2022/06/03 10:39:27;;;;;;;2.50;1.15;;;12.00;78.70;;;;;;4968424;28;20437;-70
2022/06/03 10:41:58;;;;;;;6.30;1.10;;;12.00;78.60;;;;;;4993701;28;20037;-70
2022/06/03 10:44:27;;;;;;;1.98;1.00;;;12.00;78.00;;;;;;5013473;28;20060;-70
2022/06/03 10:47:03;;;;;;;3.25;1.10;;;12.00;78.60;;;;;;5012907;28;20118;-71
2022/06/03 10:49:32;;;;;;;3.50;1.05;;;12.00;78.70;;;;;;4981000;28;20455;-70
2022/06/03 11:03:28;;;;;;;2.42;1.00;;;12.00;78.70;;;;;;5012679;28;20037;-71
2022/06/03 11:05:56;;;;;;;2.75;0.98;;;11.90;78.50;;;;;;5025594;28;20092;-70
2022/06/03 11:08:23;;;;;;;1.75;0.93;;;12.00;78.20;;;;;;5006759;28;20072;-71
2022/06/03 11:10:54;;;;;;;2.70;1.17;;;12.00;78.10;;;;;;5013397;28;20042;-71
2022/06/03 11:13:29;;;;;;;1.35;1.00;;;12.00;77.90;;;;;;5013830;28;20117;-71
2022/06/03 11:16:01;;;;;;;1.55;1.20;;;12.00;77.30;;;;;;5010471;28;20045;-71
2022/06/03 11:18:32;;;;;;;2.08;1.10;;;12.00;77.20;;;;;;5009266;28;20134;-70
2022/06/03 11:21:16;;;;;;;1.80;1.00;;;12.00;77.30;;;;;;5012074;28;20121;-71
2022/06/03 11:23:43;;;;;;;1.95;1.00;;;12.00;77.20;;;;;;5027045;28;20030;-71
2022/06/03 11:26:10;;;;;;;1.20;0.85;;;12.00;77.30;;;;;;5013267;28;20026;-71
2022/06/03 11:29:09;;;;;;;1.10;0.95;;;12.00;77.50;;;;;;5020654;28;20069;-71
2022/06/03 11:31:41;;;;;;;2.60;1.10;;;12.00;77.30;;;;;;5012692;28;20455;-69
2022/06/03 11:34:29;;;;;;;1.63;0.90;;;12.00;77.00;;;;;;4998990;28;20030;-71
2022/06/03 11:37:24;;;;;;;1.17;0.90;;;12.10;76.60;;;;;;4995376;28;20049;-70
2022/06/03 11:40:22;;;;;;;2.05;0.98;;;12.00;76.20;;;;;;4973274;28;20500;-71
2022/06/03 11:43:21;;;;;;;1.70;1.10;;;12.00;76.60;;;;;;4984456;28;20433;-70
2022/06/03 11:48:19;;;;;;;2.33;1.08;;;12.10;76.30;;;;;;4974336;28;20044;-71
2022/06/03 11:50:46;;;;;;;1.45;1.00;;;12.10;76.20;;;;;;4937297;29;20043;-71
2022/06/03 11:53:24;;;;;;;3.15;1.00;;;12.10;75.30;;;;;;4931307;29;20364;-70
2022/06/03 11:55:55;;;;;;;1.00;0.80;;;12.10;75.50;;;;;;4929008;29;20071;-71
2022/06/03 11:58:34;;;;;;;1.63;0.93;;;12.10;75.00;;;;;;4946749;29;20035;-71
2022/06/03 12:01:04;;;;;;;1.25;0.80;;;12.20;75.50;;;;;;4954198;28;20039;-71
2022/06/03 12:03:40;;;;;;;5.70;1.00;;;12.20;75.40;;;;;;4917830;29;20031;-70
2022/06/03 12:06:12;;;;;;;1.45;0.95;;;12.20;75.50;;;;;;4945206;28;20039;-70
2022/06/03 12:08:54;;;;;;;1.83;0.90;;;12.20;75.70;;;;;;4947752;28;20048;-70
2022/06/03 12:14:35;;;;;;;2.25;1.08;;;12.20;75.30;;;;;;4931203;29;20086;-69
2022/06/03 12:17:12;;;;;;;3.30;1.20;;;12.10;75.30;;;;;;4938467;29;20043;-69
2022/06/03 12:19:49;;;;;;;1.33;0.98;;;12.20;75.70;;;;;;4953931;28;20043;-70
2022/06/03 12:22:29;;;;;;;2.47;1.35;;;12.10;75.80;;;;;;4937117;29;20032;-69
2022/06/03 12:25:00;;;;;;;3.58;1.73;;;12.20;75.70;;;;;;4953977;28;20446;-70
2022/06/03 12:27:32;;;;;;;4.85;1.90;;;12.10;76.10;;;;;;4956479;28;20544;-69
2022/06/03 12:30:20;;;;;;;3.72;2.00;;;12.10;76.50;;;;;;4937034;29;20047;-69
2022/06/03 12:33:19;;;;;;;3.67;1.63;;;12.10;76.70;;;;;;4937014;29;20508;-70
2022/06/03 12:35:52;;;;;;;2.08;1.30;;;12.10;77.10;;;;;;4943485;28;20525;-69
2022/06/03 12:38:23;;;;;;;2.10;1.40;;;12.00;76.50;;;;;;4944172;29;20401;-69
2022/06/03 12:40:50;;;;;;;;;;;12.10;76.60;;;;;;4954154;28;20043;-70
2022/06/03 12:43:32;;;;;;;5.50;1.33;;;12.10;76.90;;;;;;4968565;28;19914;-70
2022/06/03 12:46:10;;;;;;;1.45;1.00;;;12.00;76.90;;;;;;4930392;28;20398;-69
2022/06/03 12:48:51;;;;;;;2.97;1.10;;;12.00;77.00;;;;;;4946084;29;20062;-69
2022/06/03 12:51:19;;;;;;;3.05;1.30;;;12.00;77.70;;;;;;4937212;28;20482;-69
2022/06/03 12:53:47;;;;;;;2.70;1.15;;;12.00;77.50;;;;;;4954090;28;20027;-69
2022/06/03 12:56:41;;;;;;;1.50;1.20;;;12.00;77.50;;;;;;4936524;28;20090;-69
2022/06/03 12:59:42;;;;;;;1.75;1.30;;;12.00;77.60;;;;;;4929973;29;20044;-69
2022/06/03 13:02:17;;;;;;;1.85;1.08;;;12.10;77.60;;;;;;4890046;28;20050;-69
2022/06/03 13:04:51;;;;;;;1.20;0.85;;;12.00;77.90;;;;;;4917483;28;20054;-69
2022/06/03 13:07:31;;;;;;;2.33;1.00;;;12.00;78.40;;;;;;4963451;28;20043;-69
2022/06/03 13:10:04;;;;;;;3.25;1.23;;;12.00;78.70;;;;;;4961283;28;20394;-69
2022/06/03 13:12:35;;;;;;;1.27;1.17;;;12.00;78.40;;;;;;4957509;28;20039;-69
2022/06/03 13:15:20;;;;;;;0.95;0.80;;;12.00;78.80;;;;;;4957433;28;20109;-69
2022/06/03 13:18:10;;;;;;;1.30;1.05;;;12.00;78.90;;;;;;4957135;28;20096;-70
2022/06/03 13:21:07;;;;;;;2.53;1.25;;;12.00;78.70;;;;;;4957395;28;20035;-69
2022/06/03 13:23:35;;;;;;;0.85;0.82;;;12.00;78.90;;;;;;4960891;28;20035;-69
2022/06/03 13:26:21;;;;;;;1.13;0.98;;;12.00;78.90;;;;;;4957486;28;20035;-69
2022/06/03 13:29:03;;;;;;;3.30;1.50;;;12.00;79.00;;;;;;4958176;28;20028;-69
2022/06/03 13:31:43;;;;;;;1.10;1.00;;;11.90;79.10;;;;;;4939973;29;20039;-69
2022/06/03 13:34:10;;;;;;;4.45;1.13;;;11.90;79.30;;;;;;4957077;28;20065;-69
2022/06/03 13:36:45;;;;;;;3.15;1.30;;;11.90;79.70;;;;;;4956778;28;20027;-69
2022/06/03 13:39:33;;;;;;;8.32;1.55;;;11.90;79.80;;;;;;4925666;28;20481;-69
2022/06/03 13:45:03;;;;;;;4.15;1.50;;;11.90;79.50;;;;;;4942078;28;20058;-69
2022/06/03 13:47:42;;;;;;;1.85;1.27;;;11.90;79.70;;;;;;4957094;28;20457;-69
2022/06/03 13:50:18;;;;;;;2.05;1.10;;;11.90;79.50;;;;;;4954822;28;20047;-69
2022/06/03 13:52:54;;;;;;;1.17;1.05;;;11.90;79.40;;;;;;4957015;28;20390;-69
2022/06/03 13:55:34;;;;;;;2.25;1.27;;;11.80;79.00;;;;;;4939694;29;20419;-69
2022/06/03 13:58:18;;;;;;;1.83;1.20;;;12.00;79.40;;;;;;4924368;28;20035;-70
2022/06/03 14:00:53;;;;;;;1.83;1.10;;;11.90;78.90;;;;;;4946635;29;20039;-69
2022/06/03 14:03:43;;;;;;;0.93;0.85;;;11.90;78.50;;;;;;4956804;28;20059;-69
2022/06/03 14:06:28;;;;;;;1.00;0.80;;;11.90;78.40;;;;;;4956730;28;20494;-70
2022/06/03 14:09:19;;;;;;;0.93;0.80;;;12.00;78.40;;;;;;4932509;28;20042;-69
2022/06/03 14:11:58;;;;;;;1.02;0.80;;;12.00;78.50;;;;;;4959905;28;20039;-69
2022/06/03 14:14:47;;;;;;;1.23;1.00;;;12.00;78.70;;;;;;4924415;29;20031;-69
2022/06/03 14:17:35;;;;;;;1.88;1.00;;;11.90;79.60;;;;;;4956456;28;20490;-69
2022/06/03 14:20:13;;;;;;;1.52;1.05;;;11.90;80.10;;;;;;4956629;28;20043;-69
2022/06/03 14:23:07;;;;;;;2.03;1.10;;;11.90;80.70;;;;;;4939342;29;20494;-69
2022/06/03 14:25:39;;;;;;;4.25;1.20;;;11.80;81.40;;;;;;4956208;28;20047;-70
2022/06/03 14:28:21;;;;;;;2.08;1.05;;;11.80;81.90;;;;;;4939532;29;20280;-69
2022/06/03 14:30:55;;;;;;;0.90;0.85;;;11.70;81.60;;;;;;4936197;29;20107;-69
2022/06/03 14:33:22;;;;;;;1.55;1.10;;;11.70;82.20;;;;;;4948850;28;20063;-69
2022/06/03 14:35:55;;;;;;;0.98;0.80;;;11.70;82.00;;;;;;4922911;28;20035;-70
2022/06/03 14:38:31;;;;;;;1.42;0.90;;;11.70;82.00;;;;;;4930508;28;20035;-69
2022/06/03 14:40:58;;;;;;;1.55;1.17;;;11.70;82.10;;;;;;4960594;28;20102;-70
2022/06/03 14:43:30;;;;;;;1.33;1.10;;;11.70;82.20;;;;;;4923499;29;20055;-69
2022/06/03 14:46:07;;;;;;;1.75;1.35;;;11.70;81.80;;;;;;4955842;28;20048;-70
2022/06/03 14:48:46;;;;;;;1.83;1.20;;;11.70;81.60;;;;;;4928126;28;20099;-70
2022/06/03 14:51:22;;;;;;;2.75;1.33;;;11.70;81.40;;;;;;4927803;28;20054;-70
2022/06/03 14:53:52;;;;;;;3.63;1.10;;;11.70;81.10;;;;;;4939065;29;20035;-69
2022/06/03 14:56:28;;;;;;;2.08;1.20;;;11.70;81.00;;;;;;4949558;28;20031;-70
2022/06/03 14:58:56;;;;;;;1.83;1.17;;;11.70;81.00;;;;;;4960089;28;20405;-69
2022/06/03 15:02:07;;;;;;;1.73;1.17;;;11.70;81.10;;;;;;4927187;28;20050;-69
2022/06/03 15:04:49;;;;;;;1.27;1.17;;;11.70;80.90;;;;;;4904469;29;20106;-70
2022/06/03 15:07:32;;;;;;;1.95;1.15;;;11.70;81.00;;;;;;4943755;28;20444;-69
2022/06/03 15:10:05;;;;;;;2.28;1.20;;;11.70;80.50;;;;;;4948664;28;20446;-69
2022/06/03 15:12:33;;;;;;;2.00;1.20;;;11.70;80.40;;;;;;4955454;28;20399;-69
2022/06/03 15:15:01;;;;;;;2.97;1.20;;;11.70;80.20;;;;;;4955271;28;20031;-69
2022/06/03 15:17:34;;;;;;;3.13;1.23;;;11.70;80.20;;;;;;4955288;28;20039;-69
2022/06/03 15:20:07;;;;;;;7.30;1.48;;;11.70;80.40;;;;;;4950391;28;20047;-69
2022/06/03 15:22:47;;;;;;;1.98;1.15;;;11.70;80.20;;;;;;4955259;28;20110;-69
2022/06/03 15:25:24;;;;;;;4.20;1.35;;;11.70;80.30;;;;;;4939638;28;20037;-69
2022/06/03 15:27:56;;;;;;;2.95;1.42;;;11.70;80.40;;;;;;4938370;29;20512;-69
2022/06/03 15:30:38;;;;;;;4.35;1.40;;;11.70;80.50;;;;;;4937947;28;20054;-69
2022/06/03 15:33:25;;;;;;;6.13;1.50;;;11.70;80.60;;;;;;4955033;28;20486;-69
2022/06/03 15:36:08;;;;;;;2.53;1.27;;;11.60;80.60;;;;;;4954944;28;20036;-69
2022/06/03 15:38:37;;;;;;;2.95;1.60;;;11.60;80.80;;;;;;4955726;28;20139;-70
2022/06/03 15:41:07;;;;;;;2.33;1.48;;;11.60;80.80;;;;;;4958529;28;20114;-69
2022/06/03 15:43:45;;;;;;;1.70;1.20;;;11.60;80.70;;;;;;4955058;28;20038;-69
2022/06/03 15:46:58;;;;;;;2.72;1.30;;;11.50;81.20;;;;;;4937790;28;20431;-69
2022/06/03 15:49:26;;;;;;;3.03;1.30;;;11.60;81.30;;;;;;4940965;28;20051;-69
2022/06/03 15:51:54;;;;;;;2.83;1.58;;;11.60;81.30;;;;;;4921781;29;20075;-69
2022/06/03 15:54:29;;;;;;;5.53;1.42;;;11.60;81.60;;;;;;4937684;29;20027;-69
2022/06/03 15:57:19;;;;;;;3.13;1.30;;;11.60;81.80;;;;;;4922585;28;20031;-69
2022/06/03 16:00:00;;;;;;;4.13;1.60;;;11.50;82.20;;;;;;4934043;28;20046;-69
2022/06/03 16:03:01;;;;;;;2.75;1.40;;;11.60;82.50;;;;;;4938854;29;20043;-69
2022/06/03 16:05:52;;;;;;;2.35;1.50;;;11.50;82.30;;;;;;4927331;28;20023;-69
2022/06/03 16:08:35;;;;;;;7.07;1.55;;;11.50;82.10;;;;;;4973487;28;20041;-69
2022/06/03 16:11:05;;;;;;;3.90;1.63;;;11.50;82.10;;;;;;4968843;28;20046;-69
2022/06/03 16:13:44;;;;;;;2.55;1.50;;;11.50;82.10;;;;;;4973468;28;20158;-69
2022/06/03 16:16:38;;;;;;;2.70;1.40;;;11.40;82.20;;;;;;4973529;28;20027;-69
2022/06/03 16:19:38;;;;;;;3.58;1.30;;;11.40;82.30;;;;;;4985478;28;20034;-69
2022/06/03 16:22:29;;;;;;;7.22;2.00;;;11.30;82.60;;;;;;4973513;28;20122;-69
2022/06/03 16:24:56;;;;;;;;;;;11.30;82.70;;;;;;4988817;28;20031;-69
2022/06/03 16:27:38;;;;;;;3.00;1.48;;;11.30;82.60;;;;;;4973160;28;20000;-69
2022/06/03 16:30:13;;;;;;;3.17;1.50;;;11.20;82.70;;;;;;4972519;28;20037;-69
2022/06/03 16:33:17;;;;;;;3.72;1.65;;;11.20;82.70;;;;;;4987811;28;20042;-69
2022/06/03 16:36:11;;;;;;;3.53;1.60;;;11.20;83.00;;;;;;4973012;28;20486;-70
2022/06/03 16:38:48;;;;;;;1.90;1.17;;;11.10;83.10;;;;;;4972199;28;20117;-70
2022/06/03 16:41:24;;;;;;;5.10;1.48;;;11.10;83.50;;;;;;4930305;28;20239;-70
2022/06/03 16:44:08;;;;;;;3.20;1.50;;;11.20;83.70;;;;;;4973297;28;20038;-70
2022/06/03 16:47:00;;;;;;;2.78;1.70;;;11.20;83.50;;;;;;4948506;28;20106;-70
2022/06/03 16:49:53;;;;;;;2.25;1.50;;;11.10;83.80;;;;;;4970302;28;20051;-70
2022/06/03 16:52:29;;;;;;;2.80;2.00;;;11.10;83.80;;;;;;4973113;28;20043;-70
2022/06/03 16:55:05;;;;;;;2.92;1.50;;;11.10;83.40;;;;;;4939981;28;20039;-70
2022/06/03 16:57:32;;;;;;;3.83;1.52;;;11.10;83.60;;;;;;4968278;28;20040;-70
2022/06/03 17:00:20;;;;;;;2.90;1.60;;;11.10;83.90;;;;;;4955193;28;20362;-70
2022/06/03 17:02:56;;;;;;;3.67;1.40;;;11.10;84.00;;;;;;4987330;28;20474;-70
2022/06/03 17:05:24;;;;;;;1.73;1.30;;;11.00;83.90;;;;;;4972582;28;20039;-70
2022/06/03 17:07:55;;;;;;;2.47;1.42;;;11.00;84.00;;;;;;4962941;28;20034;-70
2022/06/03 17:10:25;;;;;;;4.22;1.50;;;11.00;84.20;;;;;;4955275;28;20043;-70
2022/06/03 17:12:55;;;;;;;3.53;1.50;;;11.00;84.20;;;;;;4971047;28;20486;-69
2022/06/03 17:15:22;;;;;;;2.00;1.20;;;10.90;84.20;;;;;;4987324;28;20257;-70
2022/06/03 17:17:49;;;;;;;1.92;1.45;;;11.00;84.20;;;;;;4964215;28;20505;-70
2022/06/03 17:20:22;;;;;;;2.63;1.50;;;10.90;84.20;;;;;;4926115;28;20031;-70
2022/06/03 17:23:15;;;;;;;2.65;1.70;;;10.90;84.30;;;;;;4972843;28;20472;-70
2022/06/03 17:25:46;;;;;;;1.60;1.20;;;10.90;84.40;;;;;;4948146;28;20126;-69
2022/06/03 17:28:42;;;;;;;;;;;10.80;84.10;;;;;;4988164;28;20039;-70
2022/06/03 17:31:12;;;;;;;2.75;1.35;;;10.80;84.20;;;;;;4941776;28;19918;-70
2022/06/03 17:33:53;;;;;;;1.60;1.20;;;10.80;84.30;;;;;;4972784;28;20130;-70
2022/06/03 17:36:23;;;;;;;;;;;10.80;84.40;;;;;;4973127;28;20035;-70
2022/06/03 17:39:06;;;;;;;1.58;1.23;;;10.80;84.60;;;;;;4972154;28;20346;-70
2022/06/03 17:41:46;;;;;;;2.67;1.30;;;10.70;84.80;;;;;;4955546;28;20058;-70
2022/06/03 17:44:25;;;;;;;3.88;1.40;;;10.70;84.80;;;;;;4971098;28;20497;-70
2022/06/03 17:47:19;;;;;;;3.05;1.70;;;10.70;84.90;;;;;;4970807;28;20027;-69
2022/06/03 17:49:53;;;;;;;3.08;1.48;;;10.70;84.90;;;;;;4951882;28;20097;-70
2022/06/03 17:56:03;;;;;;;3.53;1.40;;;10.70;84.90;;;;;;4987005;28;20050;-69
2022/06/03 17:58:52;;;;;;;2.90;1.48;;;10.70;85.00;;;;;;4987815;28;20065;-70
2022/06/03 18:01:19;;;;;;;1.30;1.20;;;10.60;85.00;;;;;;4947494;28;20035;-70
2022/06/03 18:03:56;;;;;;;1.67;1.25;;;10.60;85.00;;;;;;4973001;28;20449;-70
2022/06/03 18:06:29;;;;;;;2.35;1.40;;;10.60;85.00;;;;;;4946889;28;20030;-70
2022/06/03 18:09:12;;;;;;;2.42;1.40;;;10.60;85.00;;;;;;4969647;28;20096;-70
2022/06/03 18:11:44;;;;;;;2.13;1.50;;;10.60;85.20;;;;;;4951801;28;20472;-70
2022/06/03 18:14:22;;;;;;;2.50;1.60;;;10.60;85.30;;;;;;4973073;28;20046;-69
2022/06/03 18:17:17;;;;;;;2.10;1.80;;;10.60;85.30;;;;;;4958726;28;20035;-67
2022/06/03 18:19:45;;;;;;;2.97;1.30;;;10.70;85.20;;;;;;4972715;28;20034;-67
2022/06/03 18:22:46;;;;;;;1.80;1.40;;;10.60;85.20;;;;;;4971590;28;20070;-67
2022/06/03 18:25:49;;;;;;;3.30;1.30;;;10.60;85.40;;;;;;4980441;28;20047;-66
2022/06/03 18:28:39;;;;;;;2.05;1.30;;;10.60;85.40;;;;;;4959822;28;20564;-67
2022/06/03 18:31:07;;;;;;;2.58;1.30;;;10.60;85.10;;;;;;4964320;28;20059;-67
2022/06/03 18:33:37;;;;;;;2.22;1.33;;;10.70;84.90;;;;;;4972715;28;20133;-67
2022/06/03 18:36:19;;;;;;;1.42;1.20;;;10.60;84.50;;;;;;4972055;28;20113;-66
2022/06/03 18:38:47;;;;;;;2.25;1.35;;;10.60;84.40;;;;;;4945752;28;20030;-67
2022/06/03 18:41:35;;;;;;;2.15;1.40;;;10.50;84.70;;;;;;4972264;28;20094;-67
2022/06/03 18:44:33;;;;;;;2.20;1.50;;;10.50;84.50;;;;;;4948774;28;20474;-66
2022/06/03 18:47:24;;;;;;;3.15;1.30;;;10.50;84.40;;;;;;4943672;28;20042;-66
2022/06/03 18:49:52;;;;;;;;;;;10.50;84.40;;;;;;4959153;28;20034;-66
2022/06/03 18:52:47;;;;;;;1.85;1.30;;;10.40;84.50;;;;;;4967460;28;19918;-66
2022/06/03 18:55:52;;;;;;;2.72;1.67;;;10.40;84.80;;;;;;4935512;28;20249;-66
2022/06/03 18:58:41;;;;;;;2.55;1.40;;;10.40;85.10;;;;;;4952599;28;20035;-66
2022/06/03 19:01:31;;;;;;;3.22;1.50;;;10.50;85.20;;;;;;4966037;28;20066;-66
2022/06/03 19:04:26;;;;;;;1.90;1.30;;;10.50;85.30;;;;;;4944607;28;20049;-67
2022/06/03 19:07:09;;;;;;;2.28;1.38;;;10.50;84.80;;;;;;4941495;28;20525;-66
2022/06/03 19:10:00;;;;;;;2.63;1.20;;;10.50;84.30;;;;;;4957790;28;20097;-66
2022/06/03 19:12:46;;;;;;;1.50;1.30;;;10.50;84.40;;;;;;4951397;28;20042;-66
2022/06/03 19:15:46;;;;;;;2.10;1.50;;;10.50;83.90;;;;;;4943542;28;20037;-66
2022/06/03 19:18:32;;;;;;;3.05;1.20;;;10.50;84.30;;;;;;4971777;28;20074;-66
2022/06/03 19:21:03;;;;;;;2.22;1.40;;;10.40;84.10;;;;;;4980129;28;20047;-67
2022/06/03 19:23:50;;;;;;;2.90;1.10;;;10.40;83.70;;;;;;4972156;28;20039;-66
2022/06/03 19:26:35;;;;;;;5.22;1.30;;;10.40;83.60;;;;;;4968028;28;20041;-66
2022/06/03 19:29:34;;;;;;;3.92;1.30;;;10.40;83.50;;;;;;4956816;28;20388;-66
2022/06/03 19:32:05;;;;;;;2.03;1.13;;;10.40;83.50;;;;;;4951634;28;20434;-67
2022/06/03 19:34:44;;;;;;;3.80;1.17;;;10.40;83.40;;;;;;4951764;28;20244;-67
2022/06/03 19:37:33;;;;;;;2.28;0.93;;;10.40;83.30;;;;;;4935106;29;20398;-66
2022/06/03 19:40:29;;;;;;;1.90;0.98;;;10.40;83.30;;;;;;4959159;28;20039;-66
2022/06/03 19:43:14;;;;;;;0.75;0.75;;;10.40;83.00;;;;;;4952337;28;20035;-66
2022/06/03 19:46:10;;;;;;;2.42;1.10;;;10.40;82.90;;;;;;4964997;28;20078;-67
2022/06/03 19:49:04;;;;;;;1.65;0.98;;;10.40;83.20;;;;;;4938216;28;20046;-66
2022/06/03 19:51:51;;;;;;;2.17;1.00;;;10.40;83.70;;;;;;4933501;29;20043;-66
2022/06/03 19:54:38;;;;;;;2.05;1.00;;;10.40;83.50;;;;;;4965890;28;20110;-73
2022/06/03 19:57:09;;;;;;;2.22;0.90;;;10.40;83.50;;;;;;4951869;28;20038;-67
2022/06/03 19:59:47;;;;;;;2.80;0.95;;;10.40;83.50;;;;;;4912454;28;20165;-66
2022/06/03 20:02:25;;;;;;;1.52;0.95;;;10.40;83.60;;;;;;4935894;28;20063;-67
2022/06/03 20:04:55;;;;;;;2.90;1.02;;;10.40;83.60;;;;;;4929615;29;20398;-67
2022/06/03 20:07:36;;;;;;;1.52;1.10;;;10.40;83.40;;;;;;4918720;28;20035;-67
2022/06/03 20:10:11;;;;;;;1.05;0.85;;;10.40;83.20;;;;;;4952385;28;20386;-66
2022/06/03 20:15:45;;;;;;;1.13;1.00;;;10.30;83.20;;;;;;4946048;28;20122;-66
2022/06/03 20:18:20;;;;;;;5.38;2.22;;;10.20;83.20;;;;;;4945699;28;20027;-66
2022/06/03 20:20:56;;;;;;;1.52;0.98;;;10.20;83.30;;;;;;4934401;29;20046;-67
2022/06/03 20:23:55;;;;;;;1.20;1.00;;;10.20;83.40;;;;;;4933771;28;20042;-67
2022/06/03 20:26:44;;;;;;;4.15;0.95;;;10.20;83.50;;;;;;4945687;28;20043;-66
2022/06/03 20:29:14;;;;;;;1.38;1.08;;;10.20;83.70;;;;;;4927869;29;20047;-66
2022/06/03 20:31:52;;;;;;;1.40;1.10;;;10.20;83.60;;;;;;4966101;28;20126;-66
2022/06/03 20:34:49;;;;;;;1.20;1.08;;;10.20;83.60;;;;;;4940509;28;20390;-66
2022/06/03 20:37:39;;;;;;;1.63;1.10;;;10.20;83.50;;;;;;4949841;28;20031;-66
2022/06/03 20:40:46;;;;;;;1.38;1.00;;;10.20;83.30;;;;;;4950670;28;20051;-66
2022/06/03 20:43:22;;;;;;;2.25;1.10;;;10.20;83.00;;;;;;4947839;28;20391;-66
2022/06/03 20:46:36;;;;;;;3.28;1.02;;;10.20;82.80;;;;;;4958483;28;20106;-69
2022/06/03 20:49:25;;;;;;;1.92;1.17;;;10.20;83.00;;;;;;4915041;29;20044;-68
2022/06/03 20:52:01;;;;;;;3.38;1.33;;;10.20;83.00;;;;;;4950320;28;20066;-68
2022/06/03 20:54:33;;;;;;;3.13;1.38;;;10.20;82.70;;;;;;4953775;28;20027;-66
2022/06/03 20:57:07;;;;;;;2.10;1.20;;;10.20;82.50;;;;;;4917135;29;20043;-67